Time;durP1;ratioP1;P1;durP2;ratioP2;P2;SDS_P1;SDS_P2;PMS_P1;PMS_P2;Temp;Humidity;BMP_temperature;BMP_pressure;BME280_temperature;BME280_humidity;BME280_pressure;Samples;Min_cycle;Max_cycle;Signal;HPM_P1;HPM_P2
2023/09/22 00:01:04;;;;;;;0.70;0.70;;;;;;;-145.69;73.12;52145.34;5113879;28;20250;-82
2023/09/22 00:03:31;;;;;;;1.13;0.80;;;;;;;-145.69;73.42;52113.66;5112771;28;20221;-84
2023/09/22 00:05:58;;;;;;;0.80;0.77;;;;;;;-145.69;73.94;52115.66;5133922;27;20193;-83
2023/09/22 00:08:25;;;;;;;1.35;0.70;;;;;;;-145.69;73.47;52133.47;5134945;27;20727;-83
2023/09/22 00:10:59;;;;;;;0.90;0.70;;;;;;;-145.69;74.04;52135.47;5135189;27;20618;-84
2023/09/22 00:13:25;;;;;;;4.18;1.10;;;;;;;-145.69;74.11;52107.72;5135225;27;20211;-83
2023/09/22 00:15:58;;;;;;;1.55;0.70;;;;;;;-145.69;74.56;52101.78;5134919;27;20203;-83
2023/09/22 00:18:24;;;;;;;2.33;0.82;;;;;;;-145.69;74.23;52151.28;5134816;27;20228;-82
2023/09/22 00:20:51;;;;;;;0.93;0.70;;;;;;;-145.69;74.57;52131.50;5134842;27;20197;-84
2023/09/22 00:23:25;;;;;;;3.45;1.05;;;;;;;-145.69;74.45;52131.50;5134552;27;20319;-83
2023/09/22 00:25:53;;;;;;;1.88;0.75;;;;;;;-145.69;74.56;52127.53;5134830;27;20203;-83
2023/09/22 00:28:26;;;;;;;1.05;0.70;;;;;;;-145.69;74.09;52139.41;5134875;27;20209;-82
2023/09/22 00:30:52;;;;;;;2.03;1.00;;;;;;;-145.69;74.84;52131.50;5133039;27;20193;-82
2023/09/22 00:33:27;;;;;;;0.98;0.80;;;;;;;-145.69;74.71;52121.59;5134177;27;20521;-82
2023/09/22 00:35:54;;;;;;;1.45;0.85;;;;;;;-145.69;75.39;52127.53;5133655;27;20245;-83
2023/09/22 00:38:23;;;;;;;1.10;0.55;;;;;;;-145.69;75.04;52123.56;5134579;27;20204;-83
2023/09/22 00:40:52;;;;;;;1.02;0.70;;;;;;;-145.69;75.47;52119.63;5134317;27;20211;-83
2023/09/22 00:43:20;;;;;;;1.45;0.65;;;;;;;-145.69;75.47;52133.47;5133584;27;20668;-83
2023/09/22 00:45:50;;;;;;;5.15;0.98;;;;;;;-145.69;75.42;52147.34;5134370;27;20292;-83
2023/09/22 00:48:22;;;;;;;1.38;1.00;;;;;;;-145.69;75.67;52159.22;5134020;27;20242;-83
2023/09/22 00:50:51;;;;;;;3.67;0.80;;;;;;;-145.69;75.62;52123.56;5134184;27;20659;-83
2023/09/22 00:53:18;;;;;;;2.47;0.75;;;;;;;-145.69;75.92;52105.75;5134350;27;20208;-82
2023/09/22 00:55:55;;;;;;;5.05;1.00;;;;;;;-145.69;75.72;52147.34;5134226;27;20202;-83
2023/09/22 00:58:26;;;;;;;0.73;0.70;;;;;;;-145.69;76.06;52119.63;5133342;27;20201;-81
2023/09/22 01:00:55;;;;;;;1.45;0.93;;;;;;;-145.69;75.55;52139.41;5093348;28;20209;-83
2023/09/22 01:03:22;;;;;;;1.25;0.80;;;;;;;-145.69;75.84;52123.56;5093518;28;20320;-82
2023/09/22 01:05:49;;;;;;;1.33;0.88;;;;;;;-145.69;76.07;52145.34;5126823;27;20303;-83
2023/09/22 01:08:16;;;;;;;1.63;0.68;;;;;;;-145.69;76.24;52117.63;5133987;27;20197;-83
2023/09/22 01:10:43;;;;;;;2.72;1.08;;;;;;;-145.69;75.75;52135.47;5134290;27;20555;-83
2023/09/22 01:13:13;;;;;;;0.80;0.60;;;;;;;-145.69;75.56;52139.41;5133877;27;20208;-83
2023/09/22 01:15:43;;;;;;;1.00;0.80;;;;;;;-145.69;75.61;52117.63;5133937;27;20242;-83
2023/09/22 01:18:13;;;;;;;2.13;0.60;;;;;;;-145.69;75.15;52121.59;5133827;27;20323;-82
2023/09/22 01:20:43;;;;;;;1.77;0.60;;;;;;;-145.69;73.77;52159.22;5134583;27;20555;-82
2023/09/22 01:23:18;;;;;;;3.72;0.98;;;;;;;-145.69;74.12;52135.47;5133898;27;20228;-83
2023/09/22 01:25:47;;;;;;;2.03;0.65;;;;;;;-145.69;74.68;52147.34;5133927;27;20236;-83
2023/09/22 01:28:14;;;;;;;1.50;0.80;;;;;;;-145.69;74.77;52137.44;5104396;27;20202;-82
2023/09/22 01:30:40;;;;;;;2.33;0.80;;;;;;;-145.69;74.60;52151.28;5092937;28;20561;-83
2023/09/22 01:33:09;;;;;;;1.25;0.80;;;;;;;-145.69;74.71;52115.66;5093025;28;20198;-82
2023/09/22 01:35:42;;;;;;;2.33;0.80;;;;;;;-145.69;74.92;52143.38;5113075;28;20193;-82
2023/09/22 01:38:15;;;;;;;2.33;0.90;;;;;;;-145.69;74.11;52117.63;5113299;28;20280;-82
2023/09/22 01:40:42;;;;;;;1.30;0.80;;;;;;;-145.69;74.46;52125.56;5113260;28;20216;-82
2023/09/22 01:43:16;;;;;;;4.50;0.88;;;;;;;-145.69;74.46;52155.25;5115298;28;20224;-83
2023/09/22 01:45:49;;;;;;;2.53;0.70;;;;;;;-145.69;74.81;52135.47;5133814;27;20543;-83
2023/09/22 01:48:22;;;;;;;1.95;0.85;;;;;;;-145.69;74.20;52131.50;5124725;27;20280;-82
2023/09/22 01:50:48;;;;;;;1.75;0.65;;;;;;;-145.69;73.90;52159.22;5111392;28;20213;-82
2023/09/22 01:53:21;;;;;;;2.53;0.90;;;;;;;-145.69;73.89;52107.72;5112980;28;20563;-82
2023/09/22 01:55:50;;;;;;;1.85;0.80;;;;;;;-145.69;73.95;52155.25;5109787;28;20205;-82
2023/09/22 01:58:17;;;;;;;1.60;0.80;;;;;;;-145.69;73.44;52145.34;5112801;28;20207;-82
2023/09/22 02:00:43;;;;;;;0.85;0.70;;;;;;;-145.69;73.35;52143.38;5113080;28;20198;-82
2023/09/22 02:03:10;;;;;;;6.38;0.90;;;;;;;-145.69;73.78;52135.47;5112984;28;20225;-82
2023/09/22 02:05:38;;;;;;;2.30;1.05;;;;;;;-145.69;73.40;52131.50;5128628;28;20280;-82
2023/09/22 02:08:05;;;;;;;3.10;0.93;;;;;;;-145.69;73.77;52145.34;5133661;27;20575;-82
2023/09/22 02:10:35;;;;;;;1.40;0.80;;;;;;;-145.69;73.60;52139.41;5132256;27;20224;-82
2023/09/22 02:13:02;;;;;;;1.25;0.60;;;;;;;-145.69;73.68;52143.38;5133594;27;20208;-82
2023/09/22 02:15:31;;;;;;;1.30;0.90;;;;;;;-145.69;73.38;52179.03;5133336;27;20207;-82
2023/09/22 02:18:00;;;;;;;2.13;0.90;;;;;;;-145.69;73.39;52159.22;5132223;27;20233;-83
2023/09/22 02:20:26;;;;;;;2.35;0.88;;;;;;;-145.69;73.50;52127.53;5133448;27;20208;-83
2023/09/22 02:22:57;;;;;;;3.08;0.88;;;;;;;-145.69;73.21;52139.41;5133172;27;20228;-83
2023/09/22 02:25:25;;;;;;;1.17;0.68;;;;;;;-145.69;73.33;52133.47;5134043;27;20200;-83
2023/09/22 02:27:58;;;;;;;2.40;0.80;;;;;;;-145.69;73.33;52139.41;5136973;27;20670;-82
2023/09/22 02:30:26;;;;;;;4.28;0.80;;;;;;;-145.69;72.97;52153.28;5136714;27;20261;-83
2023/09/22 02:32:54;;;;;;;2.65;0.70;;;;;;;-145.69;73.01;52123.56;5136932;27;20283;-82
2023/09/22 02:35:23;;;;;;;1.42;0.80;;;;;;;-145.69;73.21;52133.47;5120591;27;20203;-81
2023/09/22 02:37:50;;;;;;;0.63;0.60;;;;;;;-145.69;73.35;52151.28;5116488;28;20552;-82
2023/09/22 02:40:20;;;;;;;2.67;0.80;;;;;;;-145.69;73.58;52123.56;5116103;27;20201;-82
2023/09/22 02:42:46;;;;;;;0.77;0.77;;;;;;;-145.69;73.67;52113.66;5116087;28;20218;-82
2023/09/22 02:45:15;;;;;;;0.88;0.70;;;;;;;-145.69;73.21;52137.44;5116121;28;20198;-82
2023/09/22 02:47:43;;;;;;;1.15;0.70;;;;;;;-145.69;73.60;52153.28;5116129;28;20205;-82
2023/09/22 02:50:12;;;;;;;1.52;0.80;;;;;;;-145.69;73.52;52163.19;5116189;28;20197;-83
2023/09/22 02:52:39;;;;;;;4.47;0.82;;;;;;;-145.69;72.86;52115.66;5115218;28;20197;-83
2023/09/22 02:55:09;;;;;;;2.13;0.90;;;;;;;-145.69;72.46;52167.13;5115923;28;20205;-83
2023/09/22 02:57:35;;;;;;;4.10;0.80;;;;;;;-145.69;72.54;52143.38;5115822;28;20211;-82
2023/09/22 03:00:11;;;;;;;0.95;0.73;;;;;;;-145.69;72.47;52117.63;5116126;28;20221;-82
2023/09/22 03:02:42;;;;;;;2.83;0.80;;;;;;;-145.69;72.75;52151.28;5115955;28;20212;-82
2023/09/22 03:05:09;;;;;;;3.35;0.85;;;;;;;-145.69;73.01;52147.34;5129658;27;20204;-82
2023/09/22 03:07:36;;;;;;;1.23;0.80;;;;;;;-145.69;72.87;52155.25;5136327;27;20249;-83
2023/09/22 03:10:10;;;;;;;2.15;0.80;;;;;;;-145.69;72.40;52127.53;5136437;27;20205;-82
2023/09/22 03:12:38;;;;;;;1.63;0.85;;;;;;;-145.69;72.61;52111.69;5135233;27;20325;-83
2023/09/22 03:15:05;;;;;;;0.90;0.70;;;;;;;-145.69;73.14;52182.97;5135683;27;20196;-82
2023/09/22 03:17:32;;;;;;;1.60;0.82;;;;;;;-145.69;73.99;52165.16;5134667;27;20516;-83
2023/09/22 03:20:03;;;;;;;5.30;0.80;;;;;;;-145.69;72.88;52127.53;5135371;27;20197;-82
2023/09/22 03:22:32;;;;;;;2.67;0.77;;;;;;;-145.69;72.44;52145.34;5135045;27;20268;-83
2023/09/22 03:24:58;;;;;;;1.13;0.70;;;;;;;-145.69;71.19;52155.25;5136390;27;20228;-83
2023/09/22 03:27:25;;;;;;;1.85;0.75;;;;;;;-145.69;71.77;52111.69;5136063;27;20204;-82
2023/09/22 03:29:52;;;;;;;0.90;0.80;;;;;;;-145.69;71.63;52179.03;5136298;27;20207;-82
2023/09/22 03:32:21;;;;;;;1.20;0.90;;;;;;;-145.69;71.65;52147.34;5096640;28;20198;-82
2023/09/22 03:34:48;;;;;;;1.05;0.80;;;;;;;-145.69;71.51;52137.44;5115975;27;20621;-82
2023/09/22 03:37:16;;;;;;;2.17;0.80;;;;;;;-145.69;71.91;52147.34;5135240;27;20201;-83
2023/09/22 03:39:42;;;;;;;1.00;0.82;;;;;;;-145.69;71.96;52147.34;5132078;27;20204;-82
2023/09/22 03:42:09;;;;;;;2.90;0.82;;;;;;;-145.69;71.80;52159.22;5135366;27;20208;-82
2023/09/22 03:44:45;;;;;;;2.25;1.13;;;;;;;-145.69;71.97;52145.34;5135570;27;20339;-83
2023/09/22 03:47:11;;;;;;;1.65;1.08;;;;;;;-145.69;72.39;52123.56;5135534;27;20203;-83
2023/09/22 03:49:39;;;;;;;1.30;0.65;;;;;;;-145.69;72.19;52153.28;5135425;27;20291;-82
2023/09/22 03:52:06;;;;;;;2.10;0.70;;;;;;;-145.69;72.66;52139.41;5135269;27;20196;-83
2023/09/22 03:54:36;;;;;;;0.80;0.60;;;;;;;-145.69;72.48;52163.19;5135454;27;20695;-83
2023/09/22 03:57:06;;;;;;;0.70;0.55;;;;;;;-145.69;72.45;52149.31;5135441;27;20197;-83
2023/09/22 03:59:33;;;;;;;1.23;0.75;;;;;;;-145.69;72.53;52151.28;5135555;27;20228;-83
2023/09/22 04:02:00;;;;;;;3.33;0.98;;;;;;;-145.69;72.61;52159.22;5122943;27;20201;-83
2023/09/22 04:04:29;;;;;;;1.20;0.90;;;;;;;-145.69;72.73;52157.25;5114636;27;20236;-83
2023/09/22 04:06:56;;;;;;;2.78;0.90;;;;;;;-145.69;72.73;52147.34;5114578;28;20301;-83
2023/09/22 04:09:25;;;;;;;1.55;0.85;;;;;;;-145.69;72.87;52131.50;5114628;27;20209;-83
2023/09/22 04:11:53;;;;;;;0.77;0.77;;;;;;;-145.69;72.41;52155.25;5114494;28;20206;-82
2023/09/22 04:14:21;;;;;;;3.17;0.73;;;;;;;-145.69;72.18;52159.22;5114644;27;20254;-83
2023/09/22 04:16:47;;;;;;;1.17;0.90;;;;;;;-145.69;72.06;52169.13;5114383;27;20640;-83
2023/09/22 04:19:14;;;;;;;1.77;1.15;;;;;;;-145.69;71.99;52119.63;5114041;27;20573;-83
2023/09/22 04:21:43;;;;;;;2.58;0.60;;;;;;;-145.69;71.90;52151.28;5114672;28;20198;-82
2023/09/22 04:24:15;;;;;;;1.15;0.60;;;;;;;-145.69;71.98;52167.13;5113901;28;20683;-83
2023/09/22 04:26:43;;;;;;;2.33;0.90;;;;;;;-145.69;72.20;52143.38;5114698;28;20591;-82
2023/09/22 04:29:11;;;;;;;1.70;0.75;;;;;;;-145.69;72.12;52163.19;5114279;28;20641;-82
2023/09/22 04:31:39;;;;;;;0.90;0.70;;;;;;;-145.69;72.09;52171.09;5113743;28;20205;-82
2023/09/22 04:34:06;;;;;;;1.38;0.82;;;;;;;-145.69;71.67;52163.19;5115739;27;20193;-83
2023/09/22 04:36:32;;;;;;;2.53;0.63;;;;;;;-145.69;71.48;52151.28;5134879;27;20197;-83
2023/09/22 04:39:00;;;;;;;1.45;0.88;;;;;;;-145.69;71.92;52143.38;5134699;27;20197;-82
2023/09/22 04:41:26;;;;;;;1.08;0.80;;;;;;;-145.69;71.87;52167.13;5134628;27;20200;-83
2023/09/22 04:43:55;;;;;;;1.02;0.70;;;;;;;-145.69;71.99;52155.25;5134057;27;20269;-82
2023/09/22 04:46:25;;;;;;;1.20;0.80;;;;;;;-145.69;73.58;52115.66;5133872;27;20437;-82
2023/09/22 04:48:55;;;;;;;2.72;1.00;;;;;;;-145.69;72.54;52133.47;5133947;27;20646;-82
2023/09/22 04:51:22;;;;;;;5.28;0.82;;;;;;;-145.69;72.32;52179.03;5134697;27;20528;-82
2023/09/22 04:53:49;;;;;;;1.75;0.95;;;;;;;-145.69;72.29;52139.41;5134122;27;20197;-82
2023/09/22 04:56:15;;;;;;;1.70;1.00;;;;;;;-145.69;71.89;52151.28;5133944;27;20699;-81
2023/09/22 04:58:42;;;;;;;1.63;1.10;;;;;;;-145.69;71.99;52159.22;5131968;27;20196;-82
2023/09/22 05:01:08;;;;;;;1.85;1.00;;;;;;;-145.69;71.82;52151.28;5132976;27;20201;-81
2023/09/22 05:03:40;;;;;;;1.35;0.60;;;;;;;-145.69;71.39;52161.19;5131703;27;20220;-82
2023/09/22 05:06:09;;;;;;;4.28;1.02;;;;;;;-145.69;71.53;52151.28;5114119;28;20201;-81
2023/09/22 05:08:37;;;;;;;1.67;1.10;;;;;;;-145.69;71.70;52143.38;5114988;28;20329;-81
2023/09/22 05:11:05;;;;;;;2.35;1.13;;;;;;;-145.69;71.13;52143.38;5113298;28;20197;-82
2023/09/22 05:13:32;;;;;;;2.95;1.17;;;;;;;-145.69;71.29;52143.38;5113794;28;20602;-81
2023/09/22 05:16:05;;;;;;;1.20;0.93;;;;;;;-145.69;71.47;52147.34;5114117;28;20193;-83
2023/09/22 05:18:32;;;;;;;2.42;1.30;;;;;;;-145.69;71.82;52147.34;5113664;28;20253;-81
2023/09/22 05:21:02;;;;;;;2.10;1.58;;;;;;;-145.69;71.46;52147.34;5114219;28;20201;-81
2023/09/22 05:23:29;;;;;;;1.25;1.10;;;;;;;-145.69;71.22;52179.03;5113503;28;20200;-82
2023/09/22 05:25:56;;;;;;;1.50;1.30;;;;;;;-145.69;71.13;52137.44;5113437;28;20197;-81
2023/09/22 05:28:23;;;;;;;2.05;1.42;;;;;;;-145.69;71.19;52151.28;5114553;28;20202;-81
2023/09/22 05:30:49;;;;;;;3.60;1.13;;;;;;;-145.69;71.20;52145.34;5114473;28;20200;-82
2023/09/22 05:33:16;;;;;;;1.25;1.13;;;;;;;-145.69;70.53;52127.53;5112663;28;20224;-82
2023/09/22 05:35:42;;;;;;;1.20;1.00;;;;;;;-145.69;70.63;52159.22;5119610;28;20660;-81
2023/09/22 05:38:12;;;;;;;1.38;1.15;;;;;;;-145.69;70.70;52145.34;5120077;27;20201;-82
2023/09/22 05:40:39;;;;;;;1.20;0.80;;;;;;;-145.69;70.75;52155.25;5113743;28;20279;-82
2023/09/22 05:43:10;;;;;;;2.47;0.90;;;;;;;-145.69;70.31;52147.34;5113643;28;20209;-82
2023/09/22 05:45:39;;;;;;;1.10;1.00;;;;;;;-145.69;69.81;52149.31;5114398;28;20256;-82
2023/09/22 05:48:07;;;;;;;1.10;1.00;;;;;;;-145.69;70.02;52129.50;5117737;28;20197;-81
2023/09/22 05:50:35;;;;;;;1.50;1.10;;;;;;;-145.69;70.22;52123.56;5124503;28;20656;-82
2023/09/22 05:53:05;;;;;;;2.30;1.20;;;;;;;-145.69;69.93;52141.41;5125805;28;20193;-82
2023/09/22 05:55:33;;;;;;;1.63;1.30;;;;;;;-145.69;70.11;52149.31;5117099;28;20205;-80
2023/09/22 05:57:59;;;;;;;1.48;1.00;;;;;;;-145.69;69.46;52109.72;5098476;28;20197;-82
2023/09/22 06:00:31;;;;;;;1.48;1.00;;;;;;;-145.69;69.64;52143.38;5093950;28;20213;-81
2023/09/22 06:02:58;;;;;;;3.78;0.90;;;;;;;-145.69;70.14;52143.38;5098089;28;20436;-83
2023/09/22 06:05:31;;;;;;;1.67;1.00;;;;;;;-145.69;69.91;52151.28;5123668;27;20224;-82
2023/09/22 06:07:59;;;;;;;4.10;0.95;;;;;;;-145.69;69.78;52167.13;5137651;27;20209;-83
2023/09/22 06:10:26;;;;;;;2.30;1.08;;;;;;;-145.69;70.13;52135.47;5137439;27;20292;-83
2023/09/22 06:12:54;;;;;;;0.70;0.70;;;;;;;-145.69;70.00;52167.13;5137189;27;20197;-83
2023/09/22 06:15:20;;;;;;;1.00;0.88;;;;;;;-145.69;69.66;52151.28;5136965;27;20224;-83
2023/09/22 06:17:49;;;;;;;1.70;0.80;;;;;;;-145.69;69.43;52141.41;5136649;27;20235;-83
2023/09/22 06:20:16;;;;;;;2.00;0.80;;;;;;;-145.69;69.91;52125.56;5137355;27;20548;-83
2023/09/22 06:22:43;;;;;;;2.25;0.80;;;;;;;-145.69;69.36;52117.63;5137439;27;20249;-83
2023/09/22 06:25:10;;;;;;;2.38;0.80;;;;;;;-145.69;68.57;52139.41;5137186;27;20247;-82
2023/09/22 06:27:38;;;;;;;1.15;0.70;;;;;;;-145.69;69.36;52131.50;5134947;27;20201;-82
2023/09/22 06:30:11;;;;;;;2.65;0.90;;;;;;;-145.69;67.79;52127.53;5138012;27;20212;-82
2023/09/22 06:32:41;;;;;;;2.08;0.80;;;;;;;-145.69;67.54;52099.81;5137770;27;20201;-83
2023/09/22 06:35:09;;;;;;;0.57;0.57;;;;;;;-145.69;68.22;52153.28;5129166;27;20536;-82
2023/09/22 06:37:36;;;;;;;0.93;0.70;;;;;;;-145.69;68.21;52125.56;5115456;28;20197;-83
2023/09/22 06:40:10;;;;;;;1.65;0.85;;;;;;;-145.69;68.08;52095.84;5116261;28;20208;-83
2023/09/22 06:42:40;;;;;;;0.70;0.70;;;;;;;-145.69;68.29;52127.53;5116126;28;20242;-83
2023/09/22 06:45:10;;;;;;;0.85;0.80;;;;;;;-145.69;68.17;52139.41;5115797;28;20267;-83
2023/09/22 06:47:37;;;;;;;0.90;0.60;;;;;;;-145.69;68.45;52109.72;5115722;28;20717;-83
2023/09/22 06:50:06;;;;;;;1.25;0.98;;;;;;;-145.69;68.17;52123.56;5116231;28;20194;-83
2023/09/22 06:52:33;;;;;;;0.82;0.70;;;;;;;-145.69;67.31;52097.84;5116634;27;20250;-83
2023/09/22 06:55:01;;;;;;;0.77;0.65;;;;;;;-145.69;67.45;52125.56;5115617;28;20206;-82
2023/09/22 06:57:28;;;;;;;2.97;0.73;;;;;;;-145.69;67.80;52143.38;5115588;28;20193;-83
2023/09/22 06:59:55;;;;;;;3.08;1.10;;;;;;;-145.69;67.40;52111.69;5126119;27;20234;-83
2023/09/22 07:02:26;;;;;;;1.40;0.70;;;;;;;-145.69;67.33;52115.66;5135966;27;20204;-82
2023/09/22 07:04:53;;;;;;;1.23;0.70;;;;;;;-145.69;67.65;52123.56;5136344;27;20326;-83
2023/09/22 07:07:19;;;;;;;1.15;0.70;;;;;;;-145.69;67.27;52135.47;5136554;27;20200;-83
2023/09/22 07:09:46;;;;;;;1.45;0.90;;;;;;;-145.69;67.89;52143.38;5136269;27;20201;-83
2023/09/22 07:12:15;;;;;;;8.85;1.08;;;;;;;-145.69;67.38;52099.81;5136277;27;20196;-82
2023/09/22 07:14:42;;;;;;;1.50;0.80;;;;;;;-145.69;66.06;52103.78;5137090;27;20197;-83
2023/09/22 07:17:09;;;;;;;1.40;0.60;;;;;;;-145.69;66.31;52117.63;5136735;27;20197;-82
2023/09/22 07:19:43;;;;;;;0.50;0.50;;;;;;;-145.69;65.88;52101.78;5136487;27;20232;-83
2023/09/22 07:22:10;;;;;;;0.88;0.60;;;;;;;-145.69;66.23;52141.41;5137629;27;20642;-83
2023/09/22 07:24:36;;;;;;;7.72;0.65;;;;;;;-145.69;66.64;52147.34;5138181;27;20231;-83
2023/09/22 07:27:06;;;;;;;2.00;0.85;;;;;;;-145.69;65.31;52139.41;5137523;27;20212;-83
2023/09/22 07:29:33;;;;;;;1.95;0.80;;;;;;;-145.69;65.10;52135.47;5136981;27;20204;-83
2023/09/22 07:32:00;;;;;;;0.88;0.68;;;;;;;-145.69;65.05;52143.38;5138811;27;20203;-83
2023/09/22 07:34:46;;;;;;;0.88;0.63;;;;;;;-145.69;65.01;52111.69;5126978;27;20590;-83
2023/09/22 07:37:15;;;;;;;0.90;0.57;;;;;;;-145.69;65.85;52115.66;5116187;28;20197;-83
2023/09/22 07:39:41;;;;;;;1.40;0.60;;;;;;;-145.69;65.83;52131.50;5117317;28;20204;-83
2023/09/22 07:42:09;;;;;;;2.90;0.60;;;;;;;-145.69;65.33;52137.44;5116799;28;20206;-82
2023/09/22 07:44:36;;;;;;;1.38;0.68;;;;;;;-145.69;66.02;52095.84;5115261;27;20885;-83
2023/09/22 07:47:10;;;;;;;0.75;0.60;;;;;;;-145.69;65.35;52143.38;5114999;28;20201;-83
2023/09/22 07:49:37;;;;;;;0.40;0.40;;;;;;;-145.69;64.78;52143.38;5116675;28;20182;-82
2023/09/22 07:52:09;;;;;;;0.98;0.50;;;;;;;-145.69;64.97;52109.72;5120081;28;20206;-83
2023/09/22 07:54:37;;;;;;;1.90;0.50;;;;;;;-145.69;64.56;52163.19;5120201;27;20662;-83
2023/09/22 07:57:04;;;;;;;1.00;0.50;;;;;;;-145.69;64.03;52115.66;5117069;28;20216;-84
2023/09/22 07:59:30;;;;;;;0.38;0.38;;;;;;;-145.69;64.09;52137.44;5113043;27;20210;-82
2023/09/22 08:02:00;;;;;;;0.73;0.50;;;;;;;-145.69;64.20;52082.00;5138902;27;20207;-82
2023/09/22 08:04:27;;;;;;;0.77;0.60;;;;;;;-145.69;63.61;52135.47;5135133;27;20265;-83
2023/09/22 08:06:54;;;;;;;1.25;0.40;;;;;;;-145.69;63.06;52099.81;5137581;27;20197;-83
2023/09/22 08:09:22;;;;;;;1.98;0.40;;;;;;;-145.69;62.56;52103.78;5123837;27;20212;-83
2023/09/22 08:11:51;;;;;;;1.10;0.50;;;;;;;-145.69;62.29;52105.75;5114772;27;20205;-84
2023/09/22 08:14:17;;;;;;;0.98;0.50;;;;;;;-145.69;61.86;52105.75;5115356;28;20197;-83
2023/09/22 08:16:44;;;;;;;1.15;0.50;;;;;;;-145.69;61.13;52080.00;5114548;28;20197;-82
2023/09/22 08:19:15;;;;;;;1.23;0.60;;;;;;;-145.69;58.65;52074.06;5115064;28;20242;-84
2023/09/22 08:21:44;;;;;;;0.85;0.50;;;;;;;-145.69;58.83;52095.84;5115442;28;20280;-84
2023/09/22 08:24:11;;;;;;;0.50;0.50;;;;;;;-145.69;56.47;52087.94;5118267;28;20201;-83
2023/09/22 08:26:43;;;;;;;0.95;0.40;;;;;;;-145.69;56.40;52074.06;5117383;28;20348;-83
2023/09/22 08:29:12;;;;;;;1.40;0.50;;;;;;;-145.69;56.55;52087.94;5118511;27;20792;-83
2023/09/22 08:31:39;;;;;;;0.35;0.30;;;;;;;-145.69;56.20;52085.94;5140296;27;20260;-81
2023/09/22 08:34:05;;;;;;;0.40;0.40;;;;;;;-145.69;55.88;52091.88;5137282;27;20228;-81
2023/09/22 08:36:33;;;;;;;0.95;0.60;;;;;;;-145.69;55.89;52074.06;5136914;27;20193;-83
2023/09/22 08:38:59;;;;;;;0.65;0.40;;;;;;;-145.69;55.63;52070.09;5120996;27;20232;-82
2023/09/22 08:41:31;;;;;;;0.45;0.45;;;;;;;-145.69;56.00;52091.88;5116080;28;20216;-82
2023/09/22 08:44:03;;;;;;;0.88;0.60;;;;;;;-145.69;56.68;52087.94;5114928;28;20283;-81
2023/09/22 08:46:29;;;;;;;4.22;0.40;;;;;;;-145.69;55.62;52076.03;5114246;28;20236;-82
2023/09/22 08:48:59;;;;;;;0.65;0.60;;;;;;;-145.69;56.02;52123.56;5113117;28;20194;-82
2023/09/22 08:51:25;;;;;;;0.52;0.50;;;;;;;-145.69;56.10;52083.97;5115364;28;20197;-81
2023/09/22 08:53:53;;;;;;;0.57;0.50;;;;;;;-145.69;55.49;52111.69;5117035;28;20198;-81
2023/09/22 08:56:22;;;;;;;0.88;0.50;;;;;;;-145.69;55.36;52089.91;5101703;28;20214;-82
2023/09/22 08:58:51;;;;;;;0.50;0.38;;;;;;;-145.69;55.67;52082.00;5106692;28;20204;-83
2023/09/22 09:01:19;;;;;;;0.93;0.50;;;;;;;-145.69;55.72;52050.31;5093607;28;20262;-82
2023/09/22 09:03:46;;;;;;;0.50;0.50;;;;;;;-145.69;54.14;52072.09;5107717;28;20729;-83
2023/09/22 09:06:17;;;;;;;1.33;0.50;;;;;;;-145.69;53.20;52068.13;5116852;28;20233;-82
2023/09/22 09:09:03;;;;;;;1.38;0.40;;;;;;;-145.69;53.02;52066.16;5120240;27;20727;-82
2023/09/22 09:11:30;;;;;;;0.43;0.40;;;;;;;-145.69;53.47;52076.03;5121632;27;20197;-82
2023/09/22 09:13:58;;;;;;;0.38;0.30;;;;;;;-145.69;53.38;52056.25;5121331;28;20173;-82
2023/09/22 09:16:33;;;;;;;2.05;0.40;;;;;;;-145.69;52.48;52083.97;5119187;28;20197;-82
2023/09/22 09:19:13;;;;;;;0.65;0.30;;;;;;;-145.69;51.93;52062.19;5119649;28;20287;-82
2023/09/22 09:21:39;;;;;;;0.60;0.47;;;;;;;-145.69;53.49;52060.22;5118357;28;20235;-82
2023/09/22 09:24:06;;;;;;;0.70;0.70;;;;;;;-145.69;52.75;52091.88;5098858;28;20194;-82
2023/09/22 09:26:33;;;;;;;0.40;0.40;;;;;;;-145.69;52.36;52064.16;5103921;28;20232;-82
2023/09/22 09:29:00;;;;;;;0.88;0.50;;;;;;;-145.69;52.19;52052.28;5122049;27;20269;-82
2023/09/22 09:31:46;;;;;;;1.40;0.50;;;;;;;-145.69;51.62;52072.09;5137857;27;20265;-81
2023/09/22 09:34:14;;;;;;;0.80;0.50;;;;;;;-145.69;51.77;52064.16;5119871;28;20254;-82
2023/09/22 09:36:41;;;;;;;0.77;0.50;;;;;;;-145.69;50.89;52074.06;5121203;28;20205;-80
2023/09/22 09:39:12;;;;;;;0.57;0.40;;;;;;;-145.69;50.39;52062.19;5105429;27;20198;-81
2023/09/22 09:41:42;;;;;;;0.50;0.40;;;;;;;-145.69;50.65;52087.94;5123691;27;20200;-81
2023/09/22 09:44:09;;;;;;;2.67;0.52;;;;;;;-145.69;51.08;52070.09;5124067;27;20197;-83
2023/09/22 09:46:39;;;;;;;0.68;0.40;;;;;;;-145.69;51.50;52060.22;5120026;28;20225;-83
2023/09/22 09:49:10;;;;;;;0.73;0.40;;;;;;;-145.69;52.81;52054.25;5102012;28;20198;-84
2023/09/22 09:51:41;;;;;;;1.25;0.50;;;;;;;-145.69;52.37;52066.16;5097867;28;20198;-83
2023/09/22 09:54:09;;;;;;;0.50;0.32;;;;;;;-145.69;51.71;52060.22;5099916;28;20248;-84
2023/09/22 09:56:41;;;;;;;0.73;0.60;;;;;;;-145.69;51.26;52087.94;5101392;28;20202;-83
2023/09/22 09:59:09;;;;;;;0.82;0.60;;;;;;;-145.69;51.35;52044.38;5114644;27;20197;-84
2023/09/22 10:01:36;;;;;;;1.48;0.73;;;;;;;-145.69;51.33;52060.22;5131849;27;20253;-85
2023/09/22 10:04:04;;;;;;;1.92;0.50;;;;;;;-145.69;50.92;52064.16;5108742;27;20657;-84
2023/09/22 10:06:33;;;;;;;0.77;0.50;;;;;;;-145.69;50.29;52040.41;5130418;27;20308;-83
2023/09/22 10:09:00;;;;;;;2.15;0.55;;;;;;;-145.69;50.77;52062.19;5124434;27;20190;-84
2023/09/22 10:11:29;;;;;;;0.77;0.35;;;;;;;-145.69;50.15;52016.66;5117491;27;20204;-84
2023/09/22 10:13:55;;;;;;;0.90;0.40;;;;;;;-145.69;50.17;52062.19;5117124;28;20231;-87
2023/09/22 10:16:29;;;;;;;0.40;0.40;;;;;;;-145.69;49.98;52052.28;5118688;28;20676;-84
2023/09/22 10:18:56;;;;;;;1.08;0.52;;;;;;;-145.69;48.57;52044.38;5117365;28;20587;-83
2023/09/22 10:21:34;;;;;;;1.15;0.60;;;;;;;-145.69;47.24;52046.34;5118847;28;20205;-82
2023/09/22 10:24:23;;;;;;;1.58;0.40;;;;;;;-145.69;46.82;52036.44;5112844;28;20193;-82
2023/09/22 10:27:13;;;;;;;0.93;0.30;;;;;;;-145.69;44.94;52048.31;5096935;28;20316;-82
2023/09/22 10:29:42;;;;;;;0.20;0.20;;;;;;;-145.69;45.70;52006.75;5118299;27;20272;-82
2023/09/22 10:32:18;;;;;;;0.98;0.40;;;;;;;-145.69;46.17;52056.25;5127562;27;20220;-83
2023/09/22 10:34:46;;;;;;;1.20;0.60;;;;;;;-145.69;45.92;52028.53;5121476;27;20267;-82
2023/09/22 10:37:14;;;;;;;1.58;0.50;;;;;;;-145.69;45.79;52002.78;5117102;28;20229;-83
2023/09/22 10:39:52;;;;;;;1.17;0.80;;;;;;;-145.69;45.65;51959.22;5117131;28;20281;-83
2023/09/22 10:42:18;;;;;;;1.67;0.70;;;;;;;-145.69;45.75;52028.53;5116945;28;20204;-83
2023/09/22 10:44:58;;;;;;;1.70;0.50;;;;;;;-145.69;45.82;51996.84;5097417;28;20652;-82
2023/09/22 10:47:40;;;;;;;1.85;0.43;;;;;;;-145.69;45.87;52024.56;5096019;28;20206;-83
2023/09/22 10:50:18;;;;;;;2.20;0.57;;;;;;;-145.69;46.57;52002.78;5095244;28;20194;-83
2023/09/22 10:52:54;;;;;;;0.40;0.32;;;;;;;-145.69;46.51;52020.59;5096759;28;20201;-83
2023/09/22 10:55:30;;;;;;;1.02;0.40;;;;;;;-145.69;46.03;52018.63;5096197;28;20209;-83
2023/09/22 10:57:57;;;;;;;1.67;0.50;;;;;;;-145.69;45.21;52040.41;5098953;28;20255;-82
2023/09/22 11:00:25;;;;;;;0.63;0.40;;;;;;;-145.69;46.43;52046.34;5124986;27;20201;-82
2023/09/22 11:02:53;;;;;;;1.15;0.50;;;;;;;-145.69;46.64;51992.88;5137880;27;20208;-82
2023/09/22 11:05:19;;;;;;;0.60;0.47;;;;;;;-145.69;46.24;52024.56;5108256;27;20585;-82
2023/09/22 11:07:46;;;;;;;0.47;0.40;;;;;;;-145.69;46.38;52022.59;5120048;27;20201;-82
2023/09/22 11:10:22;;;;;;;0.60;0.60;;;;;;;-145.69;46.14;52016.66;5099209;28;20256;-82
2023/09/22 11:12:50;;;;;;;0.55;0.40;;;;;;;-145.69;45.12;52024.56;5098844;28;20204;-83
2023/09/22 11:15:16;;;;;;;1.23;0.50;;;;;;;-145.69;44.99;52022.59;5097983;28;20226;-82
2023/09/22 11:17:46;;;;;;;0.90;0.60;;;;;;;-145.69;44.80;52020.59;5098061;28;20237;-82
2023/09/22 11:20:18;;;;;;;0.73;0.40;;;;;;;-145.69;43.58;52024.56;5116192;28;20198;-83
2023/09/22 11:22:45;;;;;;;1.42;0.50;;;;;;;-145.69;43.92;52002.78;5117527;28;20209;-82
2023/09/22 11:25:12;;;;;;;0.73;0.35;;;;;;;-145.69;43.48;52008.72;5117210;28;20200;-83